createdAt,value
2019-05-18T00:01:28.760Z,93.50
2019-05-18T00:03:56.440Z,93.70
2019-05-18T00:06:24.336Z,93.40
2019-05-18T00:08:52.019Z,94.00
2019-05-18T00:11:19.657Z,94.20
2019-05-18T00:13:47.332Z,94.10
2019-05-18T00:16:15.052Z,94.40
2019-05-18T00:18:42.731Z,94.60
2019-05-18T00:21:10.450Z,94.90
2019-05-18T00:23:38.094Z,95.20
2019-05-18T00:26:05.787Z,95.60
2019-05-18T00:28:33.427Z,96.00
2019-05-18T00:31:01.108Z,96.20
2019-05-18T00:33:28.786Z,96.10
2019-05-18T00:35:56.531Z,95.70
2019-05-18T00:38:24.171Z,96.00
2019-05-18T00:40:51.920Z,95.20
2019-05-18T00:43:19.568Z,95.00
2019-05-18T00:45:47.306Z,95.60
2019-05-18T00:48:14.951Z,95.50
2019-05-18T00:50:42.633Z,95.60
2019-05-18T00:53:10.271Z,95.60
2019-05-18T00:55:38.047Z,95.90
2019-05-18T00:58:05.694Z,96.10
2019-05-18T01:00:33.684Z,95.80
2019-05-18T01:03:01.595Z,96.10
2019-05-18T01:05:29.566Z,96.10
2019-05-18T01:07:57.199Z,96.40
2019-05-18T01:10:25.187Z,96.40
2019-05-18T01:12:52.822Z,96.20
2019-05-18T01:15:20.533Z,96.50
2019-05-18T01:17:56.892Z,96.50
2019-05-18T01:20:17.647Z,96.40
2019-05-18T01:22:45.328Z,96.60
2019-05-18T01:25:13.040Z,96.70
2019-05-18T01:27:41.075Z,96.30
2019-05-18T01:30:09.278Z,96.10
2019-05-18T01:32:36.963Z,96.00
2019-05-18T01:35:05.929Z,96.00
2019-05-18T01:37:33.623Z,95.80
2019-05-18T01:40:01.542Z,96.20
2019-05-18T01:42:29.874Z,96.00
2019-05-18T01:44:57.787Z,96.30
2019-05-18T01:47:25.529Z,96.20
2019-05-18T01:49:53.553Z,96.50
2019-05-18T01:52:21.295Z,96.40
2019-05-18T01:54:48.927Z,96.50
2019-05-18T01:57:16.680Z,96.60
2019-05-18T01:59:44.308Z,96.50
2019-05-18T02:02:11.988Z,96.30
2019-05-18T02:04:39.687Z,95.90
2019-05-18T02:09:55.065Z,96.20
2019-05-18T02:12:22.747Z,96.00
2019-05-18T02:14:50.795Z,96.20
2019-05-18T02:17:18.559Z,96.30
2019-05-18T02:19:46.455Z,96.50
2019-05-18T02:22:14.132Z,96.70
2019-05-18T02:24:41.879Z,96.60
2019-05-18T02:27:09.518Z,96.60
2019-05-18T02:29:37.190Z,96.50
2019-05-18T02:32:05.084Z,96.60
2019-05-18T02:34:32.759Z,96.80
2019-05-18T02:37:00.400Z,97.00
2019-05-18T02:39:28.076Z,96.70
2019-05-18T02:41:55.743Z,96.80
2019-05-18T02:44:23.462Z,96.50
2019-05-18T02:46:51.377Z,96.90
2019-05-18T02:49:19.437Z,96.50
2019-05-18T02:51:47.087Z,96.60
2019-05-18T02:54:14.764Z,96.60
2019-05-18T02:56:42.404Z,96.60
2019-05-18T02:59:10.090Z,96.60
2019-05-18T03:01:37.734Z,96.70
2019-05-18T03:04:05.408Z,96.70
2019-05-18T03:06:33.044Z,97.10
2019-05-18T03:09:00.802Z,97.10
2019-05-18T03:11:28.439Z,97.00
2019-05-18T03:13:56.147Z,96.80
2019-05-18T03:16:23.791Z,96.70
2019-05-18T03:19:06.915Z,96.80
2019-05-18T03:21:21.160Z,97.20
2019-05-18T03:23:48.835Z,96.70
2019-05-18T03:26:16.485Z,96.50
2019-05-18T03:28:44.508Z,96.40
2019-05-18T03:31:12.155Z,96.10
2019-05-18T03:33:39.910Z,97.00
2019-05-18T03:36:07.608Z,96.50
2019-05-18T03:38:35.295Z,96.70
2019-05-18T03:41:02.937Z,96.60
2019-05-18T03:43:30.635Z,96.40
2019-05-18T03:45:58.277Z,96.70
2019-05-18T03:48:25.916Z,96.50
2019-05-18T03:50:53.599Z,96.70
2019-05-18T03:53:21.301Z,96.40
2019-05-18T03:55:48.976Z,96.60
2019-05-18T03:58:16.628Z,96.50
2019-05-18T04:00:44.366Z,96.80
2019-05-18T04:03:12.071Z,97.20
2019-05-18T04:05:39.762Z,96.80
2019-05-18T04:08:07.390Z,97.10
2019-05-18T04:10:35.072Z,97.30
2019-05-18T04:13:02.716Z,97.10
2019-05-18T04:15:30.392Z,97.20
2019-05-18T04:17:58.033Z,97.20
2019-05-18T04:20:25.748Z,97.20
2019-05-18T04:22:53.434Z,97.60
2019-05-18T04:25:21.100Z,97.40
2019-05-18T04:27:48.736Z,97.40
2019-05-18T04:30:16.511Z,97.00
2019-05-18T04:32:44.225Z,97.30
2019-05-18T04:35:11.912Z,97.10
2019-05-18T04:37:39.588Z,97.40
2019-05-18T04:40:07.610Z,97.50
2019-05-18T04:42:35.279Z,97.40
2019-05-18T04:45:02.922Z,97.30
2019-05-18T04:47:30.614Z,97.40
2019-05-18T04:50:05.408Z,97.50
2019-05-18T04:52:27.723Z,97.50
2019-05-18T04:54:55.360Z,97.40
2019-05-18T04:57:23.041Z,97.20
2019-05-18T04:59:50.675Z,96.80
2019-05-18T05:02:18.355Z,96.60
2019-05-18T05:04:45.987Z,96.20
2019-05-18T05:07:13.672Z,96.30
2019-05-18T05:09:41.321Z,96.60
2019-05-18T05:12:09.063Z,96.80
2019-05-18T05:14:36.702Z,96.80
2019-05-18T05:17:04.386Z,96.60
2019-05-18T05:19:32.019Z,96.30
2019-05-18T05:22:00.048Z,96.10
2019-05-18T05:24:27.682Z,96.20
2019-05-18T05:26:55.360Z,96.10
2019-05-18T05:29:22.991Z,96.40
2019-05-18T05:31:50.668Z,96.60
2019-05-18T05:34:18.307Z,96.20
2019-05-18T05:36:45.996Z,96.20
2019-05-18T05:39:13.636Z,96.20
2019-05-18T05:41:41.384Z,96.20
2019-05-18T05:44:09.328Z,96.40
2019-05-18T05:46:37.542Z,96.00
2019-05-18T05:49:05.247Z,96.00
2019-05-18T05:51:32.995Z,95.90
2019-05-18T05:54:00.631Z,96.20
2019-05-18T05:56:28.277Z,95.90
2019-05-18T05:58:55.962Z,95.90
2019-05-18T06:01:23.611Z,95.40
2019-05-18T06:03:51.295Z,95.40
2019-05-18T06:06:19.000Z,94.90
2019-05-18T06:08:46.687Z,94.80
2019-05-18T06:11:14.624Z,94.40
2019-05-18T06:13:42.309Z,94.30
2019-05-18T06:16:09.954Z,94.20
2019-05-18T06:18:37.642Z,94.30
2019-05-18T06:21:05.287Z,94.00
2019-05-18T06:23:32.967Z,93.70
2019-05-18T06:26:00.624Z,92.60
2019-05-18T06:28:28.305Z,91.50
2019-05-18T06:30:57.049Z,92.50
2019-05-18T06:33:25.036Z,93.20
2019-05-18T06:35:52.716Z,90.80
2019-05-18T06:38:20.364Z,91.60
2019-05-18T06:40:48.039Z,91.40
2019-05-18T06:43:15.752Z,91.60
2019-05-18T06:45:43.507Z,90.20
2019-05-18T06:48:11.156Z,91.10
2019-05-18T06:50:38.832Z,90.60
2019-05-18T06:53:06.469Z,90.80
2019-05-18T06:55:34.154Z,90.10
2019-05-18T06:58:02.068Z,90.70
2019-05-18T07:00:33.016Z,90.40
2019-05-18T07:03:00.670Z,90.10
2019-05-18T07:05:28.351Z,90.10
2019-05-18T07:07:56.011Z,88.40
2019-05-18T07:10:23.706Z,86.10
2019-05-18T07:12:51.355Z,86.10
2019-05-18T07:15:19.299Z,83.40
2019-05-18T07:17:46.943Z,86.00
2019-05-18T07:20:15.007Z,85.10
2019-05-18T07:22:42.651Z,84.30
2019-05-18T07:25:10.400Z,81.50
2019-05-18T07:27:38.040Z,83.50
2019-05-18T07:30:06.296Z,85.70
2019-05-18T07:32:33.944Z,83.40
2019-05-18T07:35:01.635Z,85.30
2019-05-18T07:37:29.297Z,85.80
2019-05-18T07:39:56.974Z,83.30
2019-05-18T07:42:24.691Z,85.30
2019-05-18T07:44:52.723Z,86.10
2019-05-18T07:47:20.428Z,84.20
2019-05-18T07:49:48.135Z,82.10
2019-05-18T07:52:17.380Z,79.70
2019-05-18T07:54:45.190Z,79.70
2019-05-18T07:57:12.900Z,82.00
2019-05-18T07:59:40.663Z,80.20
2019-05-18T08:02:08.350Z,80.30
2019-05-18T08:04:36.265Z,74.90
2019-05-18T08:07:05.404Z,79.00
2019-05-18T08:09:33.043Z,75.30
2019-05-18T08:12:00.762Z,77.40
2019-05-18T08:14:28.403Z,74.10
2019-05-18T08:16:56.078Z,77.60
2019-05-18T08:19:23.727Z,75.20
2019-05-18T08:21:53.467Z,63.90
2019-05-18T08:24:20.764Z,72.30
2019-05-18T08:26:48.456Z,72.20
2019-05-18T08:29:16.103Z,74.60
2019-05-18T08:31:43.806Z,75.70
2019-05-18T08:34:11.450Z,75.30
2019-05-18T08:36:39.123Z,73.80
2019-05-18T08:39:07.037Z,69.20
2019-05-18T08:41:34.832Z,68.90
2019-05-18T08:44:02.471Z,72.50
2019-05-18T08:46:30.223Z,72.10
2019-05-18T08:48:57.866Z,69.80
2019-05-18T08:51:25.555Z,71.40
2019-05-18T08:53:53.220Z,70.70
2019-05-18T08:56:20.952Z,69.40
2019-05-18T08:58:48.596Z,68.00
2019-05-18T09:01:16.283Z,64.30
2019-05-18T09:03:43.925Z,64.30
2019-05-18T09:06:11.599Z,67.30
2019-05-18T09:08:39.539Z,65.90
2019-05-18T09:11:07.511Z,65.90
2019-05-18T09:13:35.194Z,62.30
2019-05-18T09:16:02.839Z,64.10
2019-05-18T09:18:30.518Z,68.80
2019-05-18T09:20:58.163Z,67.60
2019-05-18T09:23:26.135Z,65.70
2019-05-18T09:25:53.786Z,58.00
2019-05-18T09:28:21.471Z,59.70
2019-05-18T09:30:49.359Z,63.00
2019-05-18T09:33:17.052Z,65.20
2019-05-18T09:35:44.697Z,60.70
2019-05-18T09:38:12.379Z,62.10
2019-05-18T09:40:40.030Z,64.90
2019-05-18T09:43:07.966Z,63.30
2019-05-18T09:45:35.613Z,65.40
2019-05-18T09:48:03.418Z,64.00
2019-05-18T09:50:31.174Z,64.60
2019-05-18T09:52:58.859Z,64.60
2019-05-18T09:55:26.502Z,63.90
2019-05-18T09:57:54.191Z,58.00
2019-05-18T10:00:21.959Z,63.20
2019-05-18T10:02:49.693Z,61.00
2019-05-18T10:05:17.443Z,61.70
2019-05-18T10:07:45.193Z,57.90
2019-05-18T10:10:12.899Z,63.00
2019-05-18T10:12:40.604Z,56.00
2019-05-18T10:15:08.515Z,55.80
2019-05-18T10:17:36.197Z,54.60
2019-05-18T10:20:05.331Z,56.60
2019-05-18T10:22:33.012Z,53.00
2019-05-18T10:25:00.721Z,56.00
2019-05-18T10:27:28.410Z,55.30
2019-05-18T10:29:56.051Z,56.80
2019-05-18T10:32:23.754Z,57.60
2019-05-18T10:34:51.391Z,56.90
2019-05-18T10:37:19.078Z,55.00
2019-05-18T10:39:46.732Z,55.00
2019-05-18T10:42:14.424Z,53.50
2019-05-18T10:44:42.068Z,55.20
2019-05-18T10:47:09.751Z,56.40
2019-05-18T10:49:37.716Z,56.60
2019-05-18T10:52:05.678Z,57.70
2019-05-18T10:54:33.337Z,59.10
2019-05-18T10:57:01.060Z,58.60
2019-05-18T10:59:29.065Z,54.30
2019-05-18T11:01:57.035Z,53.20
2019-05-18T11:04:27.810Z,54.00
2019-05-18T11:06:55.451Z,57.10
2019-05-18T11:09:23.199Z,56.60
2019-05-18T11:11:51.163Z,59.80
2019-05-18T11:14:19.085Z,55.00
2019-05-18T11:16:46.755Z,53.80
2019-05-18T11:19:14.434Z,56.30
2019-05-18T11:21:42.160Z,54.80
2019-05-18T11:24:09.831Z,55.20
2019-05-18T11:26:37.543Z,53.00
2019-05-18T11:29:05.227Z,57.20
2019-05-18T11:31:32.949Z,56.40
2019-05-18T11:34:00.644Z,58.80
2019-05-18T11:36:28.367Z,57.80
2019-05-18T11:38:56.617Z,51.40
2019-05-18T11:41:24.394Z,52.20
2019-05-18T11:43:52.267Z,53.70
2019-05-18T11:46:20.054Z,54.80
2019-05-18T11:48:47.926Z,54.00
2019-05-18T11:51:15.699Z,54.70
2019-05-18T11:53:56.221Z,54.90
2019-05-18T11:56:13.335Z,56.00
2019-05-18T11:58:41.125Z,57.90
2019-05-18T12:01:08.770Z,59.10
2019-05-18T12:03:36.521Z,58.90
2019-05-18T12:06:04.301Z,59.10
2019-05-18T12:08:32.495Z,56.40
2019-05-18T12:11:00.329Z,53.00
2019-05-18T12:13:28.092Z,52.10
2019-05-18T12:15:56.583Z,54.30
2019-05-18T12:18:24.333Z,53.70
2019-05-18T12:20:52.195Z,55.00
2019-05-18T12:23:20.249Z,57.00
2019-05-18T12:25:50.642Z,55.20
2019-05-18T12:28:17.542Z,56.20
2019-05-18T12:30:45.281Z,54.70
2019-05-18T12:33:13.089Z,57.40
2019-05-18T12:35:40.727Z,57.20
2019-05-18T12:38:08.415Z,56.50
2019-05-18T12:40:36.540Z,55.80
2019-05-18T12:43:04.269Z,55.60
2019-05-18T12:45:32.073Z,58.20
2019-05-18T12:47:59.756Z,56.90
2019-05-18T12:50:31.177Z,56.40
2019-05-18T12:52:59.460Z,57.70
2019-05-18T12:55:27.144Z,54.30
2019-05-18T12:57:55.093Z,54.50
2019-05-18T13:00:24.208Z,55.50
2019-05-18T13:02:51.855Z,56.10
2019-05-18T13:05:19.812Z,53.70
2019-05-18T13:07:47.530Z,53.60
2019-05-18T13:10:15.676Z,54.70
2019-05-18T13:12:43.358Z,53.20
2019-05-18T13:15:11.605Z,54.20
2019-05-18T13:17:39.389Z,54.80
2019-05-18T13:20:08.606Z,58.90
2019-05-18T13:22:36.260Z,55.30
2019-05-18T13:25:05.129Z,57.40
2019-05-18T13:27:39.281Z,55.10
2019-05-18T13:30:02.290Z,58.10
2019-05-18T13:32:29.935Z,58.00
2019-05-18T13:34:57.624Z,57.50
2019-05-18T13:37:25.502Z,57.20
2019-05-18T13:39:53.327Z,58.60
2019-05-18T13:42:21.383Z,57.10
2019-05-18T13:44:49.303Z,56.00
2019-05-18T13:47:17.885Z,58.20
2019-05-18T13:49:45.623Z,57.90
2019-05-18T13:52:13.401Z,58.70
2019-05-18T13:54:41.571Z,55.90
2019-05-18T13:57:09.339Z,57.10
2019-05-18T13:59:37.291Z,54.90
2019-05-18T14:02:05.019Z,57.30
2019-05-18T14:04:32.803Z,57.40
2019-05-18T14:07:00.603Z,56.40
2019-05-18T14:09:28.360Z,53.70
2019-05-18T14:11:56.069Z,56.80
2019-05-18T14:14:23.750Z,55.80
2019-05-18T14:16:51.764Z,55.10
2019-05-18T14:19:19.547Z,54.60
2019-05-18T14:21:47.271Z,53.20
2019-05-18T14:24:25.723Z,54.50
2019-05-18T14:26:53.420Z,54.20
2019-05-18T14:29:21.569Z,55.90
2019-05-18T14:31:49.312Z,54.50
2019-05-18T14:34:17.406Z,55.20
2019-05-18T14:36:45.223Z,55.20
2019-05-18T14:39:13.091Z,55.80
2019-05-18T14:41:42.590Z,56.10
2019-05-18T14:44:10.216Z,53.80
2019-05-18T14:46:37.926Z,55.30
2019-05-18T14:49:05.693Z,51.90
2019-05-18T14:51:33.494Z,53.30
2019-05-18T14:54:01.508Z,56.40
2019-05-18T14:56:29.572Z,57.40
2019-05-18T14:58:57.575Z,57.60
2019-05-18T15:01:25.383Z,57.70
2019-05-18T15:03:53.100Z,57.40
2019-05-18T15:06:20.935Z,57.20
2019-05-18T15:08:48.728Z,57.30
2019-05-18T15:11:16.516Z,56.50
2019-05-18T15:13:44.307Z,52.70
2019-05-18T15:16:11.987Z,53.50
2019-05-18T15:18:39.939Z,51.10
2019-05-18T15:21:07.730Z,52.20
2019-05-18T15:23:35.867Z,50.40
2019-05-18T15:26:03.582Z,49.90
2019-05-18T15:28:31.691Z,49.30
2019-05-18T15:30:59.867Z,49.10
2019-05-18T15:33:27.509Z,49.80
2019-05-18T15:35:55.419Z,49.90
2019-05-18T15:38:23.194Z,51.00
2019-05-18T15:40:50.951Z,51.90
2019-05-18T15:43:18.750Z,51.80
2019-05-18T15:45:46.653Z,53.10
2019-05-18T15:48:14.657Z,53.30
2019-05-18T15:50:42.523Z,52.80
2019-05-18T15:53:10.303Z,49.00
2019-05-18T15:55:37.983Z,51.60
2019-05-18T15:58:05.623Z,51.90
2019-05-18T16:00:33.571Z,52.80
2019-05-18T16:03:01.359Z,53.00
2019-05-18T16:05:29.251Z,49.40
2019-05-18T16:07:57.025Z,51.00
2019-05-18T16:10:25.803Z,49.70
2019-05-18T16:12:53.539Z,49.90
2019-05-18T16:15:21.580Z,49.60
2019-05-18T16:17:49.280Z,52.00
2019-05-18T16:20:19.263Z,53.60
2019-05-18T16:22:46.996Z,54.00
2019-05-18T16:25:14.902Z,51.30
2019-05-18T16:27:42.709Z,49.30
2019-05-18T16:30:10.831Z,50.40
2019-05-18T16:32:39.135Z,51.30
2019-05-18T16:35:07.431Z,53.00
2019-05-18T16:37:35.071Z,51.70
2019-05-18T16:40:02.718Z,51.40
2019-05-18T16:42:30.405Z,49.00
2019-05-18T16:44:58.337Z,50.00
2019-05-18T16:47:26.061Z,52.00
2019-05-18T16:49:53.700Z,52.40
2019-05-18T16:52:21.380Z,51.40
2019-05-18T16:54:49.027Z,52.80
2019-05-18T16:57:16.749Z,53.10
2019-05-18T16:59:44.427Z,53.60
2019-05-18T17:02:12.112Z,54.10
2019-05-18T17:04:39.755Z,55.20
2019-05-18T17:07:07.437Z,56.00
2019-05-18T17:09:35.091Z,56.70
2019-05-18T17:12:02.984Z,57.60
2019-05-18T17:14:30.718Z,57.10
2019-05-18T17:16:58.412Z,56.60
2019-05-18T17:19:26.043Z,55.50
2019-05-18T17:21:53.999Z,55.40
2019-05-18T17:24:21.644Z,52.10
2019-05-18T17:26:53.043Z,51.70
2019-05-18T17:29:18.759Z,51.20
2019-05-18T17:31:46.500Z,51.60
2019-05-18T17:34:14.380Z,51.20
2019-05-18T17:36:42.334Z,50.70
2019-05-18T17:39:09.979Z,52.30
2019-05-18T17:41:37.667Z,52.80
2019-05-18T17:44:05.308Z,50.20
2019-05-18T17:46:32.987Z,51.20
2019-05-18T17:49:00.646Z,51.70
2019-05-18T17:51:28.315Z,50.50
2019-05-18T17:53:55.955Z,52.10
2019-05-18T17:56:23.711Z,52.70
2019-05-18T17:58:51.378Z,51.30
2019-05-18T18:01:19.055Z,52.10
2019-05-18T18:03:46.694Z,53.00
2019-05-18T18:06:14.381Z,51.60
2019-05-18T18:08:42.022Z,53.50
2019-05-18T18:11:11.897Z,54.70
2019-05-18T18:13:39.461Z,55.20
2019-05-18T18:16:07.129Z,55.90
2019-05-18T18:18:35.094Z,55.80
2019-05-18T18:21:03.229Z,55.40
2019-05-18T18:23:30.913Z,56.60
2019-05-18T18:25:58.557Z,56.40
2019-05-18T18:28:26.244Z,56.70
2019-05-18T18:30:53.887Z,56.70
2019-05-18T18:33:21.559Z,56.10
2019-05-18T18:35:49.201Z,56.60
2019-05-18T18:38:16.884Z,56.20
2019-05-18T18:40:44.528Z,56.30
2019-05-18T18:43:12.366Z,56.40
2019-05-18T18:45:40.019Z,56.90
2019-05-18T18:48:07.721Z,56.50
2019-05-18T18:50:35.366Z,56.70
2019-05-18T18:53:03.024Z,56.50
2019-05-18T18:55:30.708Z,57.40
2019-05-18T18:57:58.348Z,57.40
2019-05-18T19:00:26.103Z,58.40
2019-05-18T19:02:53.991Z,60.00
2019-05-18T19:05:21.677Z,59.50
2019-05-18T19:07:49.328Z,59.60
2019-05-18T19:10:17.080Z,59.90
2019-05-18T19:12:45.074Z,60.80
2019-05-18T19:15:13.224Z,60.70
2019-05-18T19:17:41.203Z,62.70
2019-05-18T19:20:09.264Z,63.20
2019-05-18T19:22:36.900Z,64.70
2019-05-18T19:25:04.651Z,65.40
2019-05-18T19:27:32.672Z,66.40
2019-05-18T19:30:00.636Z,67.60
2019-05-18T19:32:28.275Z,68.70
2019-05-18T19:34:55.951Z,65.40
2019-05-18T19:37:26.376Z,66.20
2019-05-18T19:39:53.068Z,67.40
2019-05-18T19:42:20.727Z,69.10
2019-05-18T19:44:48.416Z,71.60
2019-05-18T19:47:16.059Z,72.30
2019-05-18T19:49:43.757Z,69.80
2019-05-18T19:52:11.398Z,71.70
2019-05-18T19:54:39.079Z,70.50
2019-05-18T19:57:06.732Z,71.50
2019-05-18T19:59:34.407Z,70.60
2019-05-18T20:02:02.057Z,72.10
2019-05-18T20:04:29.737Z,72.00
2019-05-18T20:06:57.390Z,71.30
2019-05-18T20:09:25.068Z,71.90
2019-05-18T20:11:52.707Z,73.00
2019-05-18T20:14:20.350Z,72.10
2019-05-18T20:16:48.037Z,72.30
2019-05-18T20:19:15.671Z,73.90
2019-05-18T20:21:43.373Z,74.40
2019-05-18T20:24:11.102Z,75.80
2019-05-18T20:26:38.776Z,76.10
2019-05-18T20:29:06.410Z,76.20
2019-05-18T20:31:34.115Z,76.10
2019-05-18T20:34:01.755Z,76.40
2019-05-18T20:36:29.780Z,77.40
2019-05-18T20:38:57.420Z,77.80
2019-05-18T20:41:25.108Z,77.80
2019-05-18T20:43:52.754Z,79.10
2019-05-18T20:46:20.439Z,79.00
2019-05-18T20:48:48.350Z,79.00
2019-05-18T20:51:16.040Z,78.60
2019-05-18T20:53:43.680Z,78.80
2019-05-18T20:56:11.373Z,78.50
2019-05-18T20:58:40.659Z,79.80
2019-05-18T21:01:08.415Z,80.40
2019-05-18T21:03:36.060Z,80.60
2019-05-18T21:06:03.804Z,80.50
2019-05-18T21:08:31.444Z,78.50
2019-05-18T21:10:59.126Z,76.30
2019-05-18T21:13:26.766Z,75.80
2019-05-18T21:15:54.451Z,74.40
2019-05-18T21:18:22.092Z,74.80
2019-05-18T21:20:49.783Z,76.40
2019-05-18T21:23:17.431Z,76.50
2019-05-18T21:25:45.111Z,80.20
2019-05-18T21:28:12.753Z,79.50
2019-05-18T21:30:40.431Z,79.40
2019-05-18T21:33:08.090Z,79.40
2019-05-18T21:35:35.767Z,82.30
2019-05-18T21:38:03.411Z,82.50
2019-05-18T21:40:31.358Z,82.50
2019-05-18T21:42:59.008Z,83.60
2019-05-18T21:45:26.684Z,81.90
2019-05-18T21:47:54.328Z,81.20
2019-05-18T21:50:22.319Z,80.90
2019-05-18T21:52:49.971Z,80.60
2019-05-18T21:55:17.606Z,80.00
2019-05-18T21:57:45.289Z,81.60
2019-05-18T22:00:13.196Z,83.30
2019-05-18T22:02:40.894Z,85.10
2019-05-18T22:05:08.810Z,85.80
2019-05-18T22:07:36.491Z,87.40
2019-05-18T22:10:05.807Z,87.00
2019-05-18T22:12:33.487Z,86.30
2019-05-18T22:15:01.137Z,88.30
2019-05-18T22:17:29.084Z,87.70
2019-05-18T22:19:57.041Z,88.90
2019-05-18T22:22:24.728Z,89.40
2019-05-18T22:24:52.367Z,89.60
2019-05-18T22:27:20.046Z,88.40
2019-05-18T22:29:47.694Z,89.20
2019-05-18T22:32:15.373Z,87.30
2019-05-18T22:34:43.016Z,85.90
2019-05-18T22:37:10.698Z,83.60
2019-05-18T22:39:38.343Z,84.20
2019-05-18T22:42:06.033Z,83.70
2019-05-18T22:44:33.679Z,82.10
2019-05-18T22:47:01.672Z,81.80
2019-05-18T22:49:29.355Z,81.90
2019-05-18T22:51:57.328Z,81.10
2019-05-18T22:54:25.217Z,80.50
2019-05-18T22:56:52.894Z,80.20
2019-05-18T22:59:20.536Z,81.80
2019-05-18T23:01:48.219Z,80.90
2019-05-18T23:04:15.855Z,79.90
2019-05-18T23:06:43.547Z,80.80
2019-05-18T23:09:11.536Z,81.60
2019-05-18T23:11:39.222Z,80.40
2019-05-18T23:14:06.861Z,80.70
2019-05-18T23:16:34.815Z,80.00
2019-05-18T23:19:02.492Z,79.30
2019-05-18T23:21:30.227Z,78.50
2019-05-18T23:23:58.111Z,78.80
2019-05-18T23:26:25.800Z,78.30
2019-05-18T23:28:53.443Z,78.00
2019-05-18T23:31:21.171Z,77.30
2019-05-18T23:33:48.849Z,77.60
2019-05-18T23:36:16.495Z,77.80
2019-05-18T23:38:44.172Z,76.90
2019-05-18T23:41:11.819Z,77.10
2019-05-18T23:43:39.496Z,76.70
2019-05-18T23:46:07.184Z,76.80
2019-05-18T23:48:34.865Z,76.00
2019-05-18T23:51:02.507Z,75.80
2019-05-18T23:53:30.187Z,75.70
2019-05-18T23:55:57.836Z,75.70
2019-05-18T23:58:25.515Z,75.90
